createdAt,value
2023-02-15T00:02:07.468Z,18.88
2023-02-15T00:04:51.182Z,17.15
2023-02-15T00:07:21.688Z,16.10
2023-02-15T00:09:50.144Z,18.38
2023-02-15T00:12:18.941Z,17.15
2023-02-15T00:14:47.161Z,16.85
2023-02-15T00:17:15.227Z,15.38
2023-02-15T00:19:43.343Z,16.02
2023-02-15T00:22:11.629Z,16.65
2023-02-15T00:24:41.082Z,16.55
2023-02-15T00:27:10.115Z,17.52
2023-02-15T00:29:38.269Z,14.40
2023-02-15T00:32:07.080Z,16.13
2023-02-15T00:34:35.272Z,16.58
2023-02-15T00:37:03.475Z,15.52
2023-02-15T00:39:31.537Z,15.95
2023-02-15T00:42:00.965Z,16.25
2023-02-15T00:44:28.993Z,15.60
2023-02-15T00:46:57.079Z,16.35
2023-02-15T00:49:25.148Z,15.85
2023-02-15T00:51:53.201Z,17.85
2023-02-15T00:54:21.360Z,15.52
2023-02-15T00:56:49.413Z,15.88
2023-02-15T00:59:18.873Z,16.30
2023-02-15T01:01:46.950Z,16.67
2023-02-15T01:04:15.264Z,17.92
2023-02-15T01:06:43.591Z,17.40
2023-02-15T01:09:11.650Z,17.08
2023-02-15T01:11:39.718Z,16.70
2023-02-15T01:14:07.783Z,15.82
2023-02-15T01:16:37.204Z,16.00
2023-02-15T01:19:05.263Z,16.15
2023-02-15T01:21:35.295Z,15.75
2023-02-15T01:24:03.548Z,15.63
2023-02-15T01:26:31.717Z,16.55
2023-02-15T01:28:59.827Z,16.40
2023-02-15T01:31:28.160Z,16.17
2023-02-15T01:33:57.681Z,15.73
2023-02-15T01:36:25.751Z,16.27
2023-02-15T01:38:53.849Z,15.98
2023-02-15T01:41:23.808Z,12.95
2023-02-15T01:43:53.767Z,15.13
2023-02-15T01:46:26.123Z,13.45
2023-02-15T01:49:00.392Z,14.38
2023-02-15T01:51:31.553Z,14.27
2023-02-15T01:54:03.670Z,14.65
2023-02-15T01:56:35.541Z,14.38
2023-02-15T01:59:08.901Z,15.10
2023-02-15T02:01:37.271Z,14.80
2023-02-15T02:04:15.493Z,10.57
2023-02-15T02:06:44.135Z,14.10
2023-02-15T02:09:13.694Z,15.38
2023-02-15T02:11:43.389Z,18.48
2023-02-15T02:14:11.920Z,14.07
2023-02-15T02:16:53.325Z,15.13
2023-02-15T02:19:53.183Z,14.63
2023-02-15T02:23:06.291Z,15.68
2023-02-15T02:26:05.183Z,14.32
2023-02-15T02:29:05.727Z,14.18
2023-02-15T02:31:55.258Z,14.55
2023-02-15T02:34:31.392Z,13.13
2023-02-15T02:37:10.366Z,13.23
2023-02-15T02:39:47.478Z,13.60
2023-02-15T02:42:21.502Z,13.77
2023-02-15T02:44:54.956Z,13.98
2023-02-15T02:47:28.714Z,12.93
2023-02-15T02:50:03.361Z,13.52
2023-02-15T02:52:40.897Z,12.85
2023-02-15T02:55:13.625Z,12.48
2023-02-15T02:57:48.588Z,13.00
2023-02-15T03:00:19.524Z,14.40
2023-02-15T03:02:49.892Z,14.60
2023-02-15T03:05:23.311Z,13.80
2023-02-15T03:07:54.031Z,14.27
2023-02-15T03:10:25.101Z,12.88
2023-02-15T03:12:53.966Z,13.00
2023-02-15T03:15:26.627Z,11.35
2023-02-15T03:17:58.636Z,13.52
2023-02-15T03:20:31.411Z,12.88
2023-02-15T03:23:03.570Z,12.32
2023-02-15T03:25:36.202Z,10.65
2023-02-15T03:28:07.755Z,10.95
2023-02-15T03:30:37.797Z,10.95
2023-02-15T03:33:08.198Z,11.63
2023-02-15T03:35:45.983Z,10.65
2023-02-15T03:38:19.432Z,11.90
2023-02-15T03:41:06.835Z,10.82
2023-02-15T03:43:42.761Z,10.25
2023-02-15T03:46:16.026Z,10.25
2023-02-15T03:48:47.780Z,10.18
2023-02-15T03:51:37.290Z,10.88
2023-02-15T03:54:09.098Z,9.70
2023-02-15T03:56:38.893Z,10.02
2023-02-15T03:59:24.434Z,10.45
2023-02-15T04:02:06.937Z,10.63
2023-02-15T04:04:37.578Z,10.07
2023-02-15T04:07:09.088Z,10.02
2023-02-15T04:09:54.683Z,10.38
2023-02-15T04:12:22.950Z,9.43
2023-02-15T04:15:08.484Z,10.77
2023-02-15T04:17:38.325Z,11.00
2023-02-15T04:20:25.384Z,10.65
2023-02-15T04:23:12.383Z,10.88
2023-02-15T04:25:40.812Z,11.07
2023-02-15T04:28:09.121Z,12.70
2023-02-15T04:30:37.430Z,13.13
2023-02-15T04:33:05.471Z,13.18
2023-02-15T04:35:34.501Z,12.95
2023-02-15T04:38:03.953Z,14.20
2023-02-15T04:42:59.980Z,14.63
2023-02-15T04:45:28.240Z,13.55
2023-02-15T04:47:56.364Z,13.43
2023-02-15T04:50:24.530Z,15.52
2023-02-15T04:52:52.582Z,16.38
2023-02-15T04:55:22.135Z,15.93
2023-02-15T05:00:18.703Z,15.38
2023-02-15T05:02:46.771Z,14.55
2023-02-15T05:05:16.186Z,16.42
2023-02-15T05:07:45.714Z,14.80
2023-02-15T05:10:13.838Z,15.57
2023-02-15T05:12:43.295Z,20.38
2023-02-15T05:17:39.573Z,29.60
2023-02-15T05:20:08.785Z,22.05
2023-02-15T05:22:36.919Z,16.42
2023-02-15T05:25:22.736Z,17.33
2023-02-15T05:28:09.537Z,18.15
2023-02-15T05:30:37.794Z,15.98
2023-02-15T05:33:05.944Z,15.95
2023-02-15T05:35:34.554Z,15.60
2023-02-15T05:38:02.696Z,17.40
2023-02-15T05:40:30.747Z,17.45
2023-02-15T05:43:00.378Z,18.08
2023-02-15T05:45:28.618Z,16.75
2023-02-15T05:47:58.971Z,16.23
2023-02-15T05:50:27.218Z,14.10
2023-02-15T05:52:55.311Z,14.75
2023-02-15T05:55:23.368Z,16.08
2023-02-15T05:57:51.492Z,14.48
2023-02-15T06:00:21.402Z,15.25
2023-02-15T06:02:49.630Z,15.80
2023-02-15T06:05:17.884Z,17.83
2023-02-15T06:07:46.486Z,16.42
2023-02-15T06:10:14.600Z,16.75
2023-02-15T06:12:42.684Z,15.43
2023-02-15T06:15:11.183Z,17.90
2023-02-15T06:17:42.801Z,13.17
2023-02-15T06:20:11.823Z,17.13
2023-02-15T06:22:39.887Z,18.90
2023-02-15T06:25:10.821Z,17.80
2023-02-15T06:27:39.082Z,16.80
2023-02-15T06:30:08.439Z,15.85
2023-02-15T06:32:37.838Z,15.13
2023-02-15T06:35:07.915Z,18.17
2023-02-15T06:37:35.987Z,14.88
2023-02-15T06:40:05.706Z,16.30
2023-02-15T06:42:34.153Z,16.52
2023-02-15T06:45:02.212Z,14.45
2023-02-15T06:47:30.274Z,14.77
2023-02-15T06:49:58.593Z,13.93
2023-02-15T06:52:29.304Z,15.20
2023-02-15T06:54:57.468Z,14.90
2023-02-15T06:57:25.838Z,16.65
2023-02-15T06:59:54.149Z,15.88
2023-02-15T07:02:22.205Z,16.75
2023-02-15T07:04:50.324Z,14.35
2023-02-15T07:07:18.546Z,17.42
2023-02-15T07:09:47.970Z,15.07
2023-02-15T07:12:33.572Z,10.95
2023-02-15T07:15:01.665Z,13.00
2023-02-15T07:17:38.098Z,12.40
2023-02-15T07:20:08.758Z,14.85
2023-02-15T07:22:38.197Z,12.98
2023-02-15T07:25:09.598Z,12.52
2023-02-15T07:27:38.022Z,11.80
2023-02-15T07:30:07.766Z,12.45
2023-02-15T07:32:36.260Z,12.70
2023-02-15T07:35:04.731Z,9.63
2023-02-15T07:37:32.753Z,11.27
2023-02-15T07:40:00.835Z,12.95
2023-02-15T07:42:32.344Z,11.88
2023-02-15T07:45:00.425Z,11.15
2023-02-15T07:47:28.962Z,10.10
2023-02-15T07:49:56.976Z,11.50
2023-02-15T07:52:25.080Z,14.57
2023-02-15T07:54:53.153Z,13.20
2023-02-15T07:57:21.214Z,11.90
2023-02-15T07:59:50.680Z,12.02
2023-02-15T08:02:18.742Z,12.30
2023-02-15T08:04:46.770Z,12.20
2023-02-15T08:07:14.848Z,13.07
2023-02-15T08:09:42.911Z,12.07
2023-02-15T08:12:10.964Z,11.52
2023-02-15T08:14:39.028Z,11.13
2023-02-15T08:17:08.501Z,12.00
2023-02-15T08:22:06.271Z,11.65
2023-02-15T08:27:06.213Z,12.27
2023-02-15T08:29:35.759Z,11.68
2023-02-15T08:32:07.039Z,12.32
2023-02-15T08:34:39.594Z,10.43
2023-02-15T08:37:07.862Z,10.50
2023-02-15T08:39:36.071Z,9.43
2023-02-15T08:42:04.365Z,11.02
2023-02-15T08:44:32.446Z,10.63
2023-02-15T08:47:04.636Z,11.82
2023-02-15T08:49:33.173Z,9.02
2023-02-15T08:52:02.624Z,10.02
2023-02-15T08:54:30.718Z,10.00
2023-02-15T08:56:58.817Z,10.57
2023-02-15T08:59:27.932Z,10.73
2023-02-15T09:01:56.586Z,11.18
2023-02-15T09:04:24.752Z,10.95
2023-02-15T09:06:53.431Z,12.50
2023-02-15T09:09:23.236Z,11.35
2023-02-15T09:11:57.710Z,11.38
2023-02-15T09:14:27.910Z,10.63
2023-02-15T09:16:56.434Z,10.05
2023-02-15T09:19:25.818Z,11.70
2023-02-15T09:21:53.991Z,10.32
2023-02-15T09:24:23.646Z,10.70
2023-02-15T09:26:51.743Z,9.98
2023-02-15T09:29:20.404Z,10.35
2023-02-15T09:31:50.949Z,10.23
2023-02-15T09:34:21.136Z,10.82
2023-02-15T09:36:49.941Z,9.80
2023-02-15T09:39:19.519Z,9.35
2023-02-15T09:42:19.061Z,9.90
2023-02-15T09:45:09.247Z,9.20
2023-02-15T09:48:00.686Z,10.23
2023-02-15T09:50:38.394Z,9.98
2023-02-15T09:53:23.567Z,11.02
2023-02-15T09:56:00.127Z,10.70
2023-02-15T09:58:37.608Z,9.63
2023-02-15T10:01:12.434Z,10.35
2023-02-15T10:04:03.018Z,9.70
2023-02-15T10:06:40.095Z,9.27
2023-02-15T10:09:30.427Z,9.38
2023-02-15T10:12:24.577Z,10.23
2023-02-15T10:15:25.113Z,9.45
2023-02-15T10:18:20.301Z,9.27
2023-02-15T10:20:58.809Z,9.30
2023-02-15T10:23:57.084Z,8.70
2023-02-15T10:26:31.785Z,9.30
2023-02-15T10:29:09.305Z,10.63
2023-02-15T10:31:47.838Z,9.65
2023-02-15T10:34:19.914Z,10.55
2023-02-15T10:37:12.386Z,10.27
2023-02-15T10:39:50.896Z,10.18
2023-02-15T10:42:29.881Z,12.23
2023-02-15T10:45:10.154Z,10.93
2023-02-15T10:48:08.122Z,11.50
2023-02-15T10:50:48.407Z,11.00
2023-02-15T10:53:30.872Z,10.98
2023-02-15T10:56:09.828Z,11.43
2023-02-15T10:58:49.048Z,10.25
2023-02-15T11:01:27.221Z,10.98
2023-02-15T11:04:17.451Z,11.55
2023-02-15T11:06:53.040Z,10.20
2023-02-15T11:09:24.351Z,10.15
2023-02-15T11:11:56.520Z,10.57
2023-02-15T11:14:33.160Z,9.90
2023-02-15T11:17:06.622Z,10.15
2023-02-15T11:19:39.723Z,11.70
2023-02-15T11:22:09.266Z,10.68
2023-02-15T11:27:21.252Z,8.95
2023-02-15T11:29:56.981Z,9.02
2023-02-15T11:32:28.314Z,9.60
2023-02-15T11:35:02.845Z,8.68
2023-02-15T11:37:37.979Z,9.30
2023-02-15T11:40:23.232Z,8.82
2023-02-15T11:42:53.551Z,8.95
2023-02-15T11:45:29.491Z,11.70
2023-02-15T11:47:58.589Z,8.65
2023-02-15T11:50:29.733Z,9.13
2023-02-15T11:53:02.225Z,8.73
2023-02-15T11:55:31.193Z,9.07
2023-02-15T11:58:07.244Z,8.90
2023-02-15T12:00:39.002Z,8.48
2023-02-15T12:03:16.317Z,8.35
2023-02-15T12:05:49.552Z,8.57
2023-02-15T12:08:23.425Z,8.75
2023-02-15T12:11:02.844Z,8.32
2023-02-15T12:13:31.164Z,8.77
2023-02-15T12:16:06.601Z,8.93
2023-02-15T12:18:39.818Z,8.23
2023-02-15T12:21:12.814Z,8.23
2023-02-15T12:23:48.777Z,8.30
2023-02-15T12:26:25.367Z,9.02
2023-02-15T12:28:55.437Z,9.15
2023-02-15T12:31:28.742Z,8.88
2023-02-15T12:34:00.120Z,8.82
2023-02-15T12:36:33.820Z,8.70
2023-02-15T12:39:07.209Z,8.13
2023-02-15T12:41:35.560Z,8.50
2023-02-15T12:44:17.091Z,7.88
2023-02-15T12:46:58.788Z,8.65
2023-02-15T12:49:28.092Z,8.50
2023-02-15T12:51:59.428Z,8.43
2023-02-15T12:54:41.814Z,8.00
2023-02-15T12:57:26.421Z,8.02
2023-02-15T12:59:57.260Z,9.38
2023-02-15T13:02:29.702Z,8.23
2023-02-15T13:04:59.505Z,8.93
2023-02-15T13:07:33.378Z,8.77
2023-02-15T13:10:01.678Z,8.95
2023-02-15T13:12:32.925Z,9.02
2023-02-15T13:15:03.607Z,9.35
2023-02-15T13:17:35.476Z,10.45
2023-02-15T13:20:10.681Z,10.05
2023-02-15T13:22:44.185Z,11.25
2023-02-15T13:25:19.621Z,9.43
2023-02-15T13:27:50.644Z,9.23
2023-02-15T13:30:27.964Z,10.55
2023-02-15T13:32:59.966Z,10.65
2023-02-15T13:35:36.300Z,10.45
2023-02-15T13:38:22.723Z,10.07
2023-02-15T13:40:55.635Z,10.20
2023-02-15T13:43:37.439Z,9.20
2023-02-15T13:46:17.498Z,9.82
2023-02-15T13:48:52.830Z,9.68
2023-02-15T13:51:26.040Z,10.18
2023-02-15T13:54:35.400Z,10.45
2023-02-15T13:57:17.944Z,10.25
2023-02-15T13:59:57.254Z,10.65
2023-02-15T14:02:44.860Z,10.35
2023-02-15T14:05:32.927Z,11.52
2023-02-15T14:08:11.071Z,11.20
2023-02-15T14:10:48.788Z,11.60
2023-02-15T14:13:53.635Z,11.90
2023-02-15T14:16:34.469Z,12.70
2023-02-15T14:19:16.026Z,12.30
2023-02-15T14:21:49.457Z,12.90
2023-02-15T14:24:35.683Z,13.77
2023-02-15T14:27:17.145Z,13.93
2023-02-15T14:29:53.477Z,14.57
2023-02-15T14:32:29.961Z,14.15
2023-02-15T14:35:01.095Z,14.48
2023-02-15T14:37:43.379Z,15.20
2023-02-15T14:40:38.870Z,16.20
2023-02-15T14:43:17.149Z,17.23
2023-02-15T14:46:01.005Z,17.38
2023-02-15T14:48:34.307Z,16.52
2023-02-15T14:51:02.758Z,17.25
2023-02-15T14:53:39.604Z,18.13
2023-02-15T14:56:21.332Z,18.40
2023-02-15T14:59:02.877Z,19.58
2023-02-15T15:01:32.389Z,20.08
2023-02-15T15:04:04.945Z,20.00
2023-02-15T15:06:35.649Z,20.65
2023-02-15T15:09:13.539Z,18.75
2023-02-15T15:11:47.622Z,19.70
2023-02-15T15:14:43.795Z,18.80
2023-02-15T15:17:14.300Z,19.63
2023-02-15T15:20:14.441Z,19.67
2023-02-15T15:22:44.176Z,19.63
2023-02-15T15:27:54.913Z,20.02
2023-02-15T15:31:02.926Z,21.98
2023-02-15T15:34:15.271Z,23.02
2023-02-15T15:37:22.936Z,24.50
2023-02-15T15:40:42.274Z,22.92
2023-02-15T15:46:19.503Z,23.85
2023-02-15T15:48:47.719Z,22.70
2023-02-15T15:51:22.117Z,23.25
2023-02-15T15:53:54.165Z,24.23
2023-02-15T15:56:26.663Z,24.92
2023-02-15T15:58:58.800Z,24.50
2023-02-15T16:01:29.529Z,22.73
2023-02-15T16:03:59.885Z,23.55
2023-02-15T16:06:35.777Z,22.92
2023-02-15T16:09:15.364Z,24.60
2023-02-15T16:11:44.040Z,25.42
2023-02-15T16:14:17.954Z,25.38
2023-02-15T16:16:53.096Z,25.48
2023-02-15T16:19:25.697Z,25.92
2023-02-15T16:21:57.400Z,26.85
2023-02-15T16:24:43.797Z,27.25
2023-02-15T16:27:32.419Z,23.80
2023-02-15T16:30:00.581Z,27.70
2023-02-15T16:32:30.041Z,27.38
2023-02-15T16:34:59.756Z,30.17
2023-02-15T16:37:33.439Z,28.98
2023-02-15T16:40:01.670Z,29.88
2023-02-15T16:42:32.234Z,28.33
2023-02-15T16:45:04.411Z,28.95
2023-02-15T16:47:35.481Z,31.08
2023-02-15T16:50:06.139Z,28.63
2023-02-15T16:52:36.713Z,31.60
2023-02-15T16:55:07.347Z,31.40
2023-02-15T16:57:37.454Z,31.63
2023-02-15T17:00:08.427Z,32.05
2023-02-15T17:02:55.018Z,33.63
2023-02-15T17:05:25.361Z,31.13
2023-02-15T17:08:15.119Z,31.25
2023-02-15T17:10:46.459Z,29.83
2023-02-15T17:13:15.611Z,32.97
2023-02-15T17:15:45.516Z,32.25
2023-02-15T17:18:18.753Z,33.05
2023-02-15T17:20:48.253Z,34.30
2023-02-15T17:23:30.794Z,35.72
2023-02-15T17:25:59.197Z,33.92
2023-02-15T17:28:31.507Z,35.47
2023-02-15T17:31:00.676Z,35.08
2023-02-15T17:33:40.346Z,35.13
2023-02-15T17:36:12.349Z,31.17
2023-02-15T17:39:00.753Z,34.67
2023-02-15T17:41:30.413Z,32.45
2023-02-15T17:43:58.924Z,33.50
2023-02-15T17:46:27.740Z,33.58
2023-02-15T17:48:57.040Z,34.78
2023-02-15T17:51:25.386Z,34.83
2023-02-15T17:54:12.325Z,32.45
2023-02-15T17:56:40.629Z,37.03
2023-02-15T17:59:10.218Z,37.20
2023-02-15T18:04:44.227Z,36.13
2023-02-15T18:07:32.043Z,35.85
2023-02-15T18:10:19.053Z,36.55
2023-02-15T18:12:47.457Z,38.40
2023-02-15T18:15:15.586Z,40.60
2023-02-15T18:17:45.749Z,37.22
2023-02-15T18:20:21.272Z,36.80
2023-02-15T18:22:49.336Z,38.78
2023-02-15T18:25:23.537Z,37.53
2023-02-15T18:27:54.570Z,39.83
2023-02-15T18:30:26.236Z,41.30
2023-02-15T18:32:57.603Z,40.95
2023-02-15T18:35:28.098Z,39.30
2023-02-15T18:37:56.398Z,38.30
2023-02-15T18:40:28.264Z,36.97
2023-02-15T18:42:57.419Z,37.63
2023-02-15T18:45:28.589Z,35.80
2023-02-15T18:47:56.759Z,37.83
2023-02-15T18:50:28.197Z,37.78
2023-02-15T18:52:56.252Z,37.67
2023-02-15T18:55:27.798Z,36.47
2023-02-15T18:57:57.986Z,37.60
2023-02-15T19:00:28.354Z,38.58
2023-02-15T19:02:56.494Z,37.08
2023-02-15T19:05:25.386Z,37.92
2023-02-15T19:07:53.488Z,34.95
2023-02-15T19:10:24.181Z,38.50
2023-02-15T19:12:55.943Z,37.03
2023-02-15T19:15:26.045Z,35.17
2023-02-15T19:17:55.395Z,36.22
2023-02-15T19:20:25.326Z,38.45
2023-02-15T19:22:56.379Z,38.35
2023-02-15T19:25:26.924Z,39.60
2023-02-15T19:27:57.210Z,40.50
2023-02-15T19:30:28.609Z,36.33
2023-02-15T19:32:57.069Z,37.33
2023-02-15T19:35:27.985Z,38.58
2023-02-15T19:37:58.241Z,37.17
2023-02-15T19:40:28.953Z,38.40
2023-02-15T19:42:59.053Z,40.20
2023-02-15T19:45:28.677Z,41.60
2023-02-15T19:47:57.189Z,40.92
2023-02-15T19:50:29.356Z,33.17
2023-02-15T19:52:58.139Z,41.70
2023-02-15T19:55:28.777Z,32.53
2023-02-15T19:57:59.644Z,42.67
2023-02-15T20:00:30.112Z,40.10
2023-02-15T20:02:59.203Z,37.25
2023-02-15T20:05:28.241Z,37.15
2023-02-15T20:07:56.961Z,40.08
2023-02-15T20:10:28.164Z,30.65
2023-02-15T20:12:56.363Z,40.17
2023-02-15T20:15:28.994Z,40.28
2023-02-15T20:17:58.789Z,38.60
2023-02-15T20:20:33.408Z,38.55
2023-02-15T20:23:02.005Z,37.25
2023-02-15T20:25:33.923Z,38.17
2023-02-15T20:28:02.821Z,38.38
2023-02-15T20:30:33.585Z,28.45
2023-02-15T20:33:01.729Z,37.78
2023-02-15T20:35:30.292Z,36.70
2023-02-15T20:38:00.431Z,37.70
2023-02-15T20:40:30.910Z,40.10
2023-02-15T20:42:59.321Z,37.05
2023-02-15T20:45:29.189Z,40.03
2023-02-15T20:47:59.188Z,39.13
2023-02-15T20:50:30.196Z,40.15
2023-02-15T20:52:59.647Z,41.88
2023-02-15T20:57:57.756Z,39.13
2023-02-15T21:00:28.195Z,39.28
2023-02-15T21:02:59.302Z,38.08
2023-02-15T21:05:30.111Z,37.95
2023-02-15T21:07:58.392Z,39.92
2023-02-15T21:10:29.371Z,39.92
2023-02-15T21:12:58.047Z,39.85
2023-02-15T21:15:29.503Z,40.00
2023-02-15T21:18:00.924Z,40.13
2023-02-15T21:20:30.943Z,39.47
2023-02-15T21:23:01.417Z,38.78
2023-02-15T21:25:33.361Z,42.90
2023-02-15T21:28:01.792Z,38.72
2023-02-15T21:30:30.137Z,39.75
2023-02-15T21:32:59.622Z,41.55
2023-02-15T21:37:55.949Z,37.63
2023-02-15T21:40:28.633Z,41.70
2023-02-15T21:43:13.982Z,40.85
2023-02-15T21:46:00.046Z,40.33
2023-02-15T21:48:29.628Z,40.45
2023-02-15T21:53:51.231Z,40.55
2023-02-15T21:56:21.352Z,40.58
2023-02-15T21:58:49.550Z,42.15
2023-02-15T22:01:22.401Z,44.08
2023-02-15T22:03:53.568Z,44.10
2023-02-15T22:06:21.664Z,60.58
2023-02-15T22:08:50.048Z,52.95
2023-02-15T22:11:20.290Z,51.63
2023-02-15T22:13:49.121Z,57.80
2023-02-15T22:16:18.543Z,42.58
2023-02-15T22:21:18.059Z,45.97
2023-02-15T22:23:47.115Z,46.25
2023-02-15T22:26:19.423Z,49.83
2023-02-15T22:28:47.700Z,47.00
2023-02-15T22:31:19.818Z,49.83
2023-02-15T22:33:49.703Z,57.47
2023-02-15T22:36:25.172Z,56.63
2023-02-15T22:38:53.619Z,62.85
2023-02-15T22:41:23.538Z,47.00
2023-02-15T22:43:51.609Z,60.63
2023-02-15T22:46:22.622Z,62.83
2023-02-15T22:48:51.561Z,73.00
2023-02-15T22:51:23.337Z,50.22
2023-02-15T22:53:53.760Z,65.13
2023-02-15T22:56:27.073Z,59.88
2023-02-15T22:58:58.667Z,55.85
2023-02-15T23:01:31.690Z,57.95
2023-02-15T23:04:03.060Z,73.65
2023-02-15T23:06:34.226Z,64.60
2023-02-15T23:09:02.341Z,60.38
2023-02-15T23:11:30.493Z,58.75
2023-02-15T23:13:58.586Z,57.67
2023-02-15T23:16:26.788Z,55.30
2023-02-15T23:18:54.821Z,47.70
2023-02-15T23:21:25.666Z,51.40
2023-02-15T23:23:58.532Z,46.70
2023-02-15T23:26:29.405Z,43.75
2023-02-15T23:28:59.334Z,43.42
2023-02-15T23:31:29.920Z,41.40
2023-02-15T23:33:58.504Z,41.10
2023-02-15T23:36:29.500Z,46.03
2023-02-15T23:39:20.684Z,40.83
2023-02-15T23:41:47.847Z,40.80
2023-02-15T23:44:16.150Z,36.15
2023-02-15T23:46:46.393Z,35.15
2023-02-15T23:49:17.047Z,35.55
2023-02-15T23:51:46.585Z,33.65
2023-02-15T23:54:17.470Z,37.15
2023-02-15T23:56:48.129Z,35.45
2023-02-15T23:59:19.001Z,35.28
